Time;durP1;ratioP1;P1;durP2;ratioP2;P2;SDS_P1;SDS_P2;PMS_P1;PMS_P2;Temp;Humidity;BMP_temperature;BMP_pressure;BME280_temperature;BME280_humidity;BME280_pressure;Samples;Min_cycle;Max_cycle;Signal;HPM_P1;HPM_P2
2022/06/05 00:01:57;;;;;;;5.55;1.87;;;26.20;99.90;;;;;;1790957;78;21641;-76
2022/06/05 00:04:30;;;;;;;4.08;1.22;;;26.20;99.90;;;;;;1771348;78;21232;-75
2022/06/05 00:07:22;;;;;;;3.10;1.00;;;26.00;99.90;;;;;;1776988;80;21604;-75
2022/06/05 00:09:57;;;;;;;3.50;1.20;;;26.00;99.90;;;;;;1774496;78;21139;-73
2022/06/05 00:12:31;;;;;;;1.87;1.27;;;26.00;99.90;;;;;;1785534;79;21719;-74
2022/06/05 00:15:01;;;;;;;2.60;1.22;;;26.20;99.90;;;;;;1802125;78;21158;-76
2022/06/05 00:17:33;;;;;;;4.22;1.42;;;26.00;99.90;;;;;;1773061;79;21733;-75
2022/06/05 00:20:08;;;;;;;2.17;1.15;;;26.20;99.90;;;;;;1799332;78;21210;-75
2022/06/05 00:22:40;;;;;;;1.55;0.82;;;26.00;99.90;;;;;;1777187;79;21155;-73
2022/06/05 00:25:13;;;;;;;3.45;1.10;;;26.20;99.90;;;;;;1773698;79;21084;-74
2022/06/05 00:27:48;;;;;;;1.70;0.80;;;26.20;99.90;;;;;;1763387;80;22219;-78
2022/06/05 00:30:21;;;;;;;4.67;1.10;;;26.10;99.90;;;;;;1791771;78;21135;-74
2022/06/05 00:32:55;;;;;;;1.82;0.90;;;26.10;99.90;;;;;;1791132;78;21136;-73
2022/06/05 00:35:32;;;;;;;2.25;1.20;;;26.10;99.90;;;;;;1754500;79;21832;-74
2022/06/05 00:38:02;;;;;;;4.20;1.30;;;26.40;99.90;;;;;;1749007;81;21267;-74
2022/06/05 00:40:36;;;;;;;4.15;1.20;;;26.30;99.90;;;;;;1800284;79;21123;-76
2022/06/05 00:43:14;;;;;;;2.60;1.10;;;26.40;99.90;;;;;;1774797;79;22283;-72
2022/06/05 00:45:47;;;;;;;3.87;1.20;;;26.20;99.90;;;;;;1767350;79;21702;-74
2022/06/05 00:48:18;;;;;;;5.97;1.30;;;26.30;99.90;;;;;;1796852;79;21668;-75
2022/06/05 00:50:49;;;;;;;2.62;1.20;;;26.40;99.90;;;;;;1807360;79;21099;-74
2022/06/05 00:53:20;;;;;;;3.05;0.85;;;26.30;99.90;;;;;;1785892;79;21209;-72
2022/06/05 00:55:53;;;;;;;4.70;1.00;;;26.30;99.90;;;;;;1790565;79;21660;-73
2022/06/05 00:58:25;;;;;;;6.72;1.25;;;26.50;99.90;;;;;;1798880;79;21741;-74
2022/06/05 01:00:59;;;;;;;3.67;0.80;;;26.50;99.90;;;;;;1804399;77;21093;-74
2022/06/05 01:03:31;;;;;;;1.72;0.80;;;26.50;99.90;;;;;;1808152;77;21199;-72
2022/06/05 01:06:02;;;;;;;5.87;1.12;;;26.60;99.90;;;;;;1803658;78;21228;-73
2022/06/05 01:08:35;;;;;;;3.42;1.60;;;26.50;99.90;;;;;;1809359;77;21130;-74
2022/06/05 01:11:18;;;;;;;6.22;1.22;;;26.50;99.90;;;;;;1768935;79;21128;-75
2022/06/05 01:13:51;;;;;;;3.35;1.40;;;26.80;99.90;;;;;;1818503;78;21152;-74
2022/06/05 01:16:25;;;;;;;2.67;1.05;;;26.70;99.90;;;;;;1776537;80;22082;-73
2022/06/05 01:18:57;;;;;;;2.00;0.90;;;26.60;99.90;;;;;;1809413;78;21107;-72
2022/06/05 01:21:30;;;;;;;4.17;1.00;;;26.90;99.90;;;;;;1788771;79;21143;-73
2022/06/05 01:24:04;;;;;;;3.02;1.52;;;26.90;99.90;;;;;;1804520;79;21174;-73
2022/06/05 01:26:41;;;;;;;2.92;1.10;;;26.80;99.90;;;;;;1776072;79;21170;-73
2022/06/05 01:29:16;;;;;;;3.47;0.78;;;26.80;99.90;;;;;;1816389;78;21280;-73
2022/06/05 01:31:51;;;;;;;2.37;1.10;;;27.00;99.90;;;;;;1782202;79;21109;-72
2022/06/05 01:34:22;;;;;;;5.78;1.20;;;27.30;99.90;;;;;;1791190;78;21151;-73
2022/06/05 01:36:57;;;;;;;5.33;1.25;;;27.20;99.90;;;;;;1800437;78;21547;-74
2022/06/05 01:39:31;;;;;;;2.42;1.27;;;27.40;99.90;;;;;;1813408;78;21632;-75
2022/06/05 01:42:04;;;;;;;3.35;1.22;;;27.50;99.90;;;;;;1812101;78;21601;-75
2022/06/05 01:44:37;;;;;;;5.20;1.37;;;27.30;99.90;;;;;;1800571;77;21204;-76
2022/06/05 01:47:11;;;;;;;4.37;1.30;;;27.30;99.90;;;;;;1810056;77;21210;-75
2022/06/05 01:49:44;;;;;;;2.55;1.20;;;27.40;99.90;;;;;;1781955;79;21194;-74
2022/06/05 01:52:19;;;;;;;2.95;0.95;;;27.30;99.90;;;;;;1786210;79;21563;-72
2022/06/05 01:54:53;;;;;;;2.72;1.07;;;27.20;99.90;;;;;;1755615;79;21808;-74
2022/06/05 01:57:26;;;;;;;3.50;0.90;;;27.30;99.90;;;;;;1778325;80;21225;-75
2022/06/05 02:00:05;;;;;;;3.05;0.98;;;27.30;99.90;;;;;;1804295;78;21177;-76
2022/06/05 02:02:38;;;;;;;5.25;0.95;;;27.40;99.90;;;;;;1821602;78;21236;-75
2022/06/05 02:05:11;;;;;;;2.98;1.07;;;27.40;99.90;;;;;;1795552;78;21200;-75
2022/06/05 02:07:45;;;;;;;2.17;0.95;;;27.40;99.90;;;;;;1795926;78;21748;-75
2022/06/05 02:10:16;;;;;;;2.42;0.82;;;27.30;99.90;;;;;;1784282;79;21270;-75
2022/06/05 02:12:48;;;;;;;2.72;1.00;;;27.30;99.90;;;;;;1778261;79;21163;-73
2022/06/05 02:15:19;;;;;;;3.17;0.88;;;27.40;99.90;;;;;;1791430;79;21198;-74
2022/06/05 02:17:50;;;;;;;1.65;0.70;;;27.50;99.90;;;;;;1782143;79;21282;-73
2022/06/05 02:20:21;;;;;;;1.72;0.68;;;27.40;99.90;;;;;;1780760;79;21268;-74
2022/06/05 02:22:53;;;;;;;3.40;1.00;;;27.40;99.90;;;;;;1787348;79;21571;-75
2022/06/05 02:25:26;;;;;;;5.33;1.32;;;27.50;99.90;;;;;;1790542;79;21186;-75
2022/06/05 02:28:01;;;;;;;2.90;0.90;;;27.50;99.90;;;;;;1777739;79;21728;-74
2022/06/05 02:30:34;;;;;;;2.58;1.45;;;27.60;99.90;;;;;;1792326;78;21156;-74
2022/06/05 02:33:06;;;;;;;5.55;1.50;;;27.60;99.90;;;;;;1817319;77;21159;-74
2022/06/05 02:35:37;;;;;;;7.75;1.67;;;27.90;99.90;;;;;;1789641;79;21623;-73
2022/06/05 02:38:11;;;;;;;5.17;1.45;;;27.90;99.90;;;;;;1787880;78;21118;-74
2022/06/05 02:40:44;;;;;;;3.80;1.00;;;27.80;99.90;;;;;;1761376;79;21210;-76
2022/06/05 02:43:16;;;;;;;1.87;0.60;;;27.80;99.90;;;;;;1797916;78;21724;-75
2022/06/05 02:45:51;;;;;;;1.90;0.80;;;27.90;99.90;;;;;;1800827;78;21268;-75
2022/06/05 02:48:25;;;;;;;2.12;0.90;;;28.10;99.90;;;;;;1795085;78;22049;-74
2022/06/05 02:50:58;;;;;;;3.98;0.98;;;28.20;99.90;;;;;;1803193;78;21186;-75
2022/06/05 02:53:29;;;;;;;2.55;1.07;;;28.10;99.90;;;;;;1803110;78;21225;-74
2022/06/05 02:56:05;;;;;;;3.20;0.82;;;28.10;99.90;;;;;;1810020;78;21150;-75
2022/06/05 02:58:36;;;;;;;2.87;1.07;;;28.60;99.90;;;;;;1796614;78;21166;-74
2022/06/05 03:03:56;;;;;;;6.92;1.62;;;28.60;99.90;;;;;;1808902;78;21111;-75
2022/06/05 03:06:29;;;;;;;1.92;0.68;;;28.60;99.90;;;;;;1795727;78;21240;-74
2022/06/05 03:09:01;;;;;;;3.27;0.78;;;28.40;99.90;;;;;;1805545;78;21728;-74
2022/06/05 03:11:34;;;;;;;1.90;0.60;;;28.90;99.90;;;;;;1794257;78;21207;-73
2022/06/05 03:14:06;;;;;;;1.25;0.50;;;28.70;99.90;;;;;;1806074;78;21189;-74
2022/06/05 03:16:37;;;;;;;1.00;0.20;;;28.80;99.90;;;;;;1797869;78;21570;-74
2022/06/05 03:19:08;;;;;;;1.02;0.30;;;28.90;99.90;;;;;;1778106;79;21671;-73
2022/06/05 03:21:40;;;;;;;1.45;0.80;;;28.90;99.90;;;;;;1802707;79;21634;-75
2022/06/05 03:24:10;;;;;;;2.20;0.90;;;29.20;99.90;;;;;;1799712;78;21226;-74
2022/06/05 03:26:42;;;;;;;2.08;0.72;;;29.10;99.90;;;;;;1797011;79;21673;-74
2022/06/05 03:29:13;;;;;;;1.55;0.50;;;29.00;99.90;;;;;;1800615;79;21565;-74
2022/06/05 03:31:44;;;;;;;1.07;0.40;;;29.20;99.90;;;;;;1805889;78;21121;-75
2022/06/05 03:34:17;;;;;;;3.37;0.82;;;29.40;99.90;;;;;;1791775;79;21075;-74
2022/06/05 03:36:48;;;;;;;3.45;1.00;;;29.30;99.90;;;;;;1802361;78;21122;-75
2022/06/05 03:39:18;;;;;;;1.80;1.05;;;29.20;99.90;;;;;;1805388;78;21139;-76
2022/06/05 03:41:50;;;;;;;3.42;1.00;;;29.10;99.90;;;;;;1796001;79;21723;-75
2022/06/05 03:44:21;;;;;;;2.00;0.80;;;29.30;99.90;;;;;;1780721;79;21198;-75
2022/06/05 03:46:57;;;;;;;;;;;29.20;99.90;;;;;;1801045;78;21099;-74
2022/06/05 03:49:27;;;;;;;3.30;1.15;;;29.40;99.90;;;;;;1802991;78;20270;-74
2022/06/05 03:51:58;;;;;;;3.10;0.80;;;29.30;99.90;;;;;;1778082;79;21181;-74
2022/06/05 03:54:29;;;;;;;2.72;1.20;;;29.50;99.90;;;;;;1759226;80;21170;-74
2022/06/05 03:57:00;;;;;;;2.37;0.88;;;29.70;99.90;;;;;;1815899;78;21211;-74
2022/06/05 03:59:32;;;;;;;2.25;0.90;;;29.70;99.90;;;;;;1753360;79;21098;-75
2022/06/05 04:02:04;;;;;;;3.67;1.55;;;29.90;99.90;;;;;;1753651;80;21174;-75
2022/06/05 04:04:35;;;;;;;2.12;0.75;;;29.60;99.90;;;;;;1806280;79;21211;-74
2022/06/05 04:07:07;;;;;;;2.10;0.90;;;29.80;99.90;;;;;;1793066;79;21855;-74
2022/06/05 04:09:39;;;;;;;2.02;0.98;;;30.00;99.90;;;;;;1763207;78;21178;-73
2022/06/05 04:12:10;;;;;;;1.75;0.62;;;29.80;99.90;;;;;;1795471;79;21087;-74
2022/06/05 04:14:41;;;;;;;1.70;0.72;;;29.80;99.90;;;;;;1810802;78;21092;-75
2022/06/05 04:17:13;;;;;;;1.98;0.90;;;30.10;99.90;;;;;;1790476;78;21568;-74
2022/06/05 04:19:44;;;;;;;2.42;0.95;;;30.20;99.90;;;;;;1798341;78;21638;-75
2022/06/05 04:22:15;;;;;;;2.55;0.93;;;30.00;99.90;;;;;;1797533;78;21672;-74
2022/06/05 04:24:45;;;;;;;5.05;0.70;;;30.00;99.90;;;;;;1826099;77;21681;-74
2022/06/05 04:27:16;;;;;;;3.87;1.05;;;29.90;99.90;;;;;;1837003;77;21158;-75
2022/06/05 04:29:48;;;;;;;2.67;1.32;;;30.30;99.90;;;;;;1794484;79;21185;-76
2022/06/05 04:32:30;;;;;;;6.22;1.07;;;30.00;99.90;;;;;;1824349;78;21198;-74
2022/06/05 04:35:02;;;;;;;3.75;1.00;;;30.30;99.90;;;;;;1846874;77;21146;-76
2022/06/05 04:37:34;;;;;;;2.77;1.00;;;30.20;99.90;;;;;;1793354;79;21214;-75
2022/06/05 04:40:08;;;;;;;2.08;0.80;;;30.20;99.90;;;;;;1816658;78;21130;-76
2022/06/05 04:42:40;;;;;;;2.12;0.93;;;30.30;99.90;;;;;;1780097;79;21216;-75
2022/06/05 04:45:13;;;;;;;2.00;0.53;;;30.30;99.90;;;;;;1797944;79;21142;-74
2022/06/05 04:47:46;;;;;;;2.35;0.90;;;30.50;99.90;;;;;;1772095;79;21647;-75
2022/06/05 04:50:17;;;;;;;2.00;1.00;;;30.40;99.90;;;;;;1836014;77;21091;-75
2022/06/05 04:52:48;;;;;;;2.20;1.05;;;30.80;99.90;;;;;;1814970;77;21884;-74
2022/06/05 04:55:23;;;;;;;6.05;1.40;;;30.70;99.90;;;;;;1803061;77;21166;-75
2022/06/05 04:57:53;;;;;;;2.27;1.15;;;30.90;99.90;;;;;;1813271;77;21186;-74
2022/06/05 05:00:24;;;;;;;1.65;0.80;;;31.00;99.90;;;;;;1812109;77;21087;-75
2022/06/05 05:02:55;;;;;;;2.72;1.10;;;30.70;99.90;;;;;;1805592;77;21131;-75
2022/06/05 05:05:27;;;;;;;2.30;1.30;;;30.80;99.90;;;;;;1824516;77;21215;-75
2022/06/05 05:07:58;;;;;;;6.87;1.20;;;30.70;99.90;;;;;;1824325;77;21122;-76
2022/06/05 05:10:29;;;;;;;2.12;0.98;;;30.70;99.90;;;;;;1801998;79;21213;-75
2022/06/05 05:13:00;;;;;;;2.30;1.32;;;31.00;99.90;;;;;;1775612;79;21582;-74
2022/06/05 05:15:32;;;;;;;3.72;0.98;;;30.90;99.90;;;;;;1795101;78;21197;-74
2022/06/05 05:18:02;;;;;;;2.92;1.40;;;30.70;99.90;;;;;;1806465;78;21686;-75
2022/06/05 05:20:33;;;;;;;4.33;1.50;;;30.50;99.90;;;;;;1796241;78;21095;-76
2022/06/05 05:23:04;;;;;;;3.75;1.42;;;30.80;99.90;;;;;;1817005;78;21122;-75
2022/06/05 05:25:37;;;;;;;3.67;1.57;;;30.40;99.90;;;;;;1823973;77;21162;-75
2022/06/05 05:28:09;;;;;;;3.50;1.20;;;30.40;99.90;;;;;;1832506;78;21757;-76
2022/06/05 05:30:42;;;;;;;2.67;1.07;;;30.40;99.90;;;;;;1805279;79;21267;-77
2022/06/05 05:33:14;;;;;;;2.90;1.10;;;30.50;99.90;;;;;;1805957;77;21125;-76
2022/06/05 05:35:45;;;;;;;2.75;1.10;;;30.70;99.90;;;;;;1756723;80;21157;-76
2022/06/05 05:38:16;;;;;;;1.95;1.07;;;30.60;99.90;;;;;;1813636;78;21200;-76
2022/06/05 05:43:19;;;;;;;1.32;0.82;;;30.70;99.90;;;;;;1806678;78;21193;-77
2022/06/05 05:45:50;;;;;;;4.92;1.25;;;31.10;99.90;;;;;;1817573;78;21219;-78
2022/06/05 05:48:21;;;;;;;2.60;1.07;;;31.20;99.90;;;;;;1813589;78;21177;-77
2022/06/05 05:50:54;;;;;;;3.65;0.80;;;30.90;99.90;;;;;;1812677;78;21134;-79
2022/06/05 05:53:29;;;;;;;2.98;0.90;;;;;;;;;;1826429;78;21205;-77
2022/06/05 05:56:04;;;;;;;2.77;1.00;;;31.70;99.90;;;;;;1806841;78;21659;-77
2022/06/05 05:58:36;;;;;;;3.47;1.57;;;;;;;;;;1821338;78;21126;-77
2022/06/05 06:01:08;;;;;;;4.75;2.37;;;;;;;;;;1811090;78;21159;-76
2022/06/05 06:03:44;;;;;;;5.35;3.22;;;;;;;;;;1810174;78;21185;-76
2022/06/05 06:06:12;;;;;;;3.05;1.27;;;31.70;99.90;;;;;;1819188;78;21597;-77
2022/06/05 06:08:46;;;;;;;2.22;1.20;;;;;;;;;;1803691;78;21662;-78
2022/06/05 06:11:18;;;;;;;3.10;1.00;;;;;;;;;;1808745;78;21179;-77
2022/06/05 06:13:50;;;;;;;3.00;1.20;;;31.90;99.90;;;;;;1816932;79;21215;-77
2022/06/05 06:16:21;;;;;;;1.77;1.00;;;;;;;;;;1791008;79;21318;-77
2022/06/05 06:18:51;;;;;;;3.15;1.45;;;;;;;;;;1817411;77;21228;-77
2022/06/05 06:21:22;;;;;;;3.20;1.50;;;;;;;;;;1828487;77;21192;-77
2022/06/05 06:23:55;;;;;;;1.82;1.02;;;31.80;99.90;;;;;;1827601;77;21075;-77
2022/06/05 06:26:26;;;;;;;1.72;0.70;;;31.70;99.90;;;;;;1810780;77;21610;-76
2022/06/05 06:28:57;;;;;;;2.10;1.10;;;31.70;99.90;;;;;;1804497;77;21657;-77
2022/06/05 06:31:28;;;;;;;2.72;1.12;;;;;;;;;;1802125;79;21130;-77
2022/06/05 06:34:02;;;;;;;3.02;0.90;;;;;;;;;;1803513;79;21748;-77
2022/06/05 06:36:33;;;;;;;2.75;1.32;;;;;;;;;;1770540;79;21155;-75
2022/06/05 06:39:05;;;;;;;3.35;0.90;;;;;;;;;;1803975;77;21652;-76
2022/06/05 06:41:36;;;;;;;2.15;0.70;;;31.80;99.90;;;;;;1828803;77;21095;-77
2022/06/05 06:44:07;;;;;;;2.85;0.75;;;32.10;99.90;;;;;;1830734;77;21134;-77
2022/06/05 06:46:38;;;;;;;3.12;0.57;;;31.80;99.90;;;;;;1820128;77;21178;-77
2022/06/05 06:49:12;;;;;;;2.65;0.80;;;31.80;99.90;;;;;;1797785;77;21205;-76
2022/06/05 06:51:43;;;;;;;2.20;0.78;;;32.10;99.90;;;;;;1819231;77;21146;-77
2022/06/05 06:54:14;;;;;;;3.20;1.12;;;31.80;99.90;;;;;;1810384;77;21178;-78
2022/06/05 06:56:45;;;;;;;2.55;0.90;;;31.80;99.90;;;;;;1825944;77;21150;-76
2022/06/05 06:59:17;;;;;;;3.42;0.98;;;31.90;99.90;;;;;;1820074;77;21193;-75
2022/06/05 07:01:48;;;;;;;2.30;1.00;;;32.00;99.90;;;;;;1831907;77;21616;-76
2022/06/05 07:04:19;;;;;;;3.20;0.60;;;32.30;99.90;;;;;;1800088;79;21606;-76
2022/06/05 07:06:51;;;;;;;2.00;0.80;;;32.10;99.90;;;;;;1804782;78;21150;-75
2022/06/05 07:09:21;;;;;;;1.90;0.80;;;32.50;99.90;;;;;;1807027;78;21138;-76
2022/06/05 07:11:52;;;;;;;3.50;0.72;;;32.30;99.90;;;;;;1801884;78;21205;-75
2022/06/05 07:14:25;;;;;;;2.33;1.00;;;32.20;99.90;;;;;;1813143;78;21146;-75
2022/06/05 07:16:56;;;;;;;2.30;0.90;;;32.20;99.90;;;;;;1773251;79;21684;-75
2022/06/05 07:19:27;;;;;;;3.80;1.17;;;32.30;99.90;;;;;;1798848;77;21626;-75
2022/06/05 07:21:58;;;;;;;2.47;1.12;;;32.20;99.90;;;;;;1783772;80;21649;-76
2022/06/05 07:24:30;;;;;;;3.02;1.20;;;32.20;99.90;;;;;;1787926;79;21696;-76
2022/06/05 07:27:01;;;;;;;1.75;0.82;;;32.40;99.90;;;;;;1803757;78;21655;-75
2022/06/05 07:29:32;;;;;;;2.25;0.80;;;32.30;99.90;;;;;;1782113;79;21265;-74
2022/06/05 07:32:03;;;;;;;2.85;1.20;;;32.30;99.90;;;;;;1801921;78;21222;-75
2022/06/05 07:34:35;;;;;;;2.60;0.90;;;32.40;99.90;;;;;;1799148;78;21115;-73
2022/06/05 07:37:07;;;;;;;1.95;0.93;;;32.40;99.90;;;;;;1759199;80;21551;-76
2022/06/05 07:39:39;;;;;;;2.45;1.07;;;32.50;99.90;;;;;;1756092;80;21224;-76
2022/06/05 07:42:13;;;;;;;1.67;0.90;;;32.50;99.90;;;;;;1803964;78;21256;-75
2022/06/05 07:44:44;;;;;;;1.82;0.88;;;32.30;99.90;;;;;;1764046;81;21241;-74
2022/06/05 07:47:16;;;;;;;3.17;1.07;;;32.40;99.90;;;;;;1766829;80;21796;-74
2022/06/05 07:49:49;;;;;;;4.62;2.00;;;32.40;99.90;;;;;;1845460;77;21139;-73
2022/06/05 07:54:53;;;;;;;2.60;1.37;;;32.80;99.90;;;;;;1836743;77;21244;-72
2022/06/05 07:57:25;;;;;;;2.55;1.20;;;32.60;99.90;;;;;;1829019;78;21364;-74
2022/06/05 07:59:56;;;;;;;2.55;1.42;;;32.70;99.90;;;;;;1820511;78;21141;-73
2022/06/05 08:02:29;;;;;;;2.98;1.50;;;32.60;99.90;;;;;;1827606;77;21162;-74
2022/06/05 08:05:10;;;;;;;3.60;1.80;;;32.60;99.90;;;;;;1834199;77;21154;-74
2022/06/05 08:07:41;;;;;;;3.25;1.75;;;32.50;99.90;;;;;;1834430;77;21123;-74
2022/06/05 08:10:12;;;;;;;3.87;1.85;;;32.60;99.90;;;;;;1829925;76;21084;-76
2022/06/05 08:12:44;;;;;;;4.35;1.40;;;32.90;99.90;;;;;;1803242;78;21620;-76
2022/06/05 08:15:16;;;;;;;4.15;1.90;;;32.90;99.90;;;;;;1799109;78;21130;-74
2022/06/05 08:17:47;;;;;;;3.22;2.02;;;32.60;99.90;;;;;;1794797;79;21167;-75
2022/06/05 08:20:23;;;;;;;2.08;1.22;;;32.60;99.90;;;;;;1803883;78;21265;-73
2022/06/05 08:23:00;;;;;;;2.17;1.27;;;33.00;99.90;;;;;;1775122;80;21076;-77
2022/06/05 08:25:37;;;;;;;3.10;1.37;;;32.60;99.90;;;;;;1775758;79;21316;-75
2022/06/05 08:28:09;;;;;;;2.17;1.12;;;32.60;99.90;;;;;;1765030;81;21293;-75
2022/06/05 08:30:40;;;;;;;2.65;1.10;;;32.70;99.90;;;;;;1823585;78;21665;-76
2022/06/05 08:33:19;;;;;;;2.80;0.90;;;32.60;99.90;;;;;;1796133;78;21549;-76
2022/06/05 08:35:50;;;;;;;2.83;1.40;;;32.70;99.90;;;;;;1772794;80;21616;-75
2022/06/05 08:43:31;;;;;;;3.42;1.70;;;32.60;99.90;;;;;;1778256;79;21079;-75
2022/06/05 08:46:04;;;;;;;4.22;1.22;;;32.60;99.90;;;;;;1794111;78;21183;-75
2022/06/05 08:48:38;;;;;;;4.28;1.20;;;32.40;99.90;;;;;;1778743;80;21159;-75
2022/06/05 08:51:11;;;;;;;3.52;1.25;;;32.40;99.90;;;;;;1788417;79;21167;-75
2022/06/05 08:53:45;;;;;;;2.17;1.40;;;32.30;99.90;;;;;;1833081;77;21080;-74
2022/06/05 08:56:20;;;;;;;5.55;1.40;;;32.40;99.90;;;;;;1813061;78;21210;-75
2022/06/05 08:58:54;;;;;;;2.85;1.87;;;32.10;99.90;;;;;;1792527;79;21789;-74
2022/06/05 09:01:27;;;;;;;6.95;2.50;;;32.30;99.90;;;;;;1831171;77;21182;-75
2022/06/05 09:04:00;;;;;;;3.15;1.80;;;32.30;99.90;;;;;;1830159;77;21619;-75
2022/06/05 09:06:32;;;;;;;3.33;1.47;;;32.50;99.90;;;;;;1821080;77;21182;-75
2022/06/05 09:09:09;;;;;;;3.67;1.72;;;32.40;99.90;;;;;;1827633;77;21204;-76
2022/06/05 09:11:41;;;;;;;2.52;1.20;;;32.30;99.90;;;;;;1822273;77;21544;-75
2022/06/05 09:14:16;;;;;;;6.58;1.60;;;32.20;99.90;;;;;;1818430;77;21130;-75
2022/06/05 09:16:55;;;;;;;2.90;1.12;;;32.40;99.90;;;;;;1827541;77;21190;-76
2022/06/05 09:19:32;;;;;;;2.17;1.17;;;32.50;99.90;;;;;;1846742;77;21095;-73
2022/06/05 09:22:04;;;;;;;3.52;1.20;;;32.30;99.90;;;;;;1836934;77;21144;-74
2022/06/05 09:24:37;;;;;;;2.42;1.50;;;32.30;99.90;;;;;;1838923;77;21088;-74
2022/06/05 09:27:12;;;;;;;2.90;1.27;;;32.30;99.90;;;;;;1808384;78;21154;-76
2022/06/05 09:29:45;;;;;;;1.92;0.90;;;32.10;99.90;;;;;;1837221;77;21617;-75
2022/06/05 09:32:19;;;;;;;1.92;1.05;;;32.60;99.90;;;;;;1840713;78;21079;-74
2022/06/05 09:34:52;;;;;;;1.60;1.00;;;32.20;99.90;;;;;;1781923;80;21163;-76
2022/06/05 09:37:26;;;;;;;2.55;1.30;;;32.20;99.90;;;;;;1841047;78;21602;-75
2022/06/05 09:39:59;;;;;;;3.55;1.47;;;32.30;99.90;;;;;;1835726;78;21170;-75
2022/06/05 09:42:33;;;;;;;1.82;0.80;;;32.10;99.90;;;;;;1835416;78;21492;-74
2022/06/05 09:45:07;;;;;;;2.15;1.00;;;32.20;99.90;;;;;;1835957;77;21135;-76
2022/06/05 09:47:41;;;;;;;1.50;0.98;;;32.20;99.90;;;;;;1834717;78;21182;-75
2022/06/05 09:50:16;;;;;;;1.92;1.17;;;32.50;99.90;;;;;;1832679;78;21614;-73
2022/06/05 09:52:50;;;;;;;3.05;1.30;;;32.30;99.90;;;;;;1834955;76;21123;-76
2022/06/05 09:55:21;;;;;;;4.42;1.35;;;32.20;99.90;;;;;;1830772;78;21587;-76
2022/06/05 10:00:31;;;;;;;2.58;1.15;;;32.30;99.90;;;;;;1837051;76;21103;-75
2022/06/05 10:03:05;;;;;;;2.02;1.00;;;32.30;99.90;;;;;;1833700;77;21759;-76
2022/06/05 10:05:40;;;;;;;3.58;1.40;;;32.00;99.90;;;;;;1809878;78;21169;-76
2022/06/05 10:08:11;;;;;;;3.30;1.25;;;32.10;99.90;;;;;;1852532;77;21628;-74
2022/06/05 10:10:45;;;;;;;3.45;0.90;;;32.10;99.90;;;;;;1839322;77;21556;-76
2022/06/05 10:13:19;;;;;;;2.08;1.17;;;32.00;99.90;;;;;;1835388;78;21394;-74
2022/06/05 10:15:52;;;;;;;3.90;1.35;;;32.00;99.90;;;;;;1800366;79;21620;-74
2022/06/05 10:18:27;;;;;;;3.12;1.07;;;32.00;99.90;;;;;;1794730;78;21748;-75
2022/06/05 10:21:01;;;;;;;2.67;1.20;;;32.00;99.90;;;;;;1777331;79;21777;-74
2022/06/05 10:23:35;;;;;;;3.70;1.70;;;31.90;99.90;;;;;;1793852;79;21598;-75
2022/06/05 10:26:09;;;;;;;2.12;1.20;;;32.10;99.90;;;;;;1760169;80;21563;-76
2022/06/05 10:28:42;;;;;;;2.45;1.27;;;31.80;99.90;;;;;;1790974;79;21148;-75
2022/06/05 10:31:15;;;;;;;2.10;1.07;;;32.00;99.90;;;;;;1800211;79;21140;-82
2022/06/05 10:33:53;;;;;;;2.25;1.20;;;32.00;99.90;;;;;;1791096;79;21716;-83
2022/06/05 10:36:28;;;;;;;5.15;1.32;;;;;;;;;;1790320;79;21746;-84
2022/06/05 10:39:01;;;;;;;2.37;1.40;;;;;;;;;;1773691;79;21177;-84
2022/06/05 10:41:33;;;;;;;4.65;1.77;;;;;;;;;;1798519;79;21182;-84
2022/06/05 10:44:06;;;;;;;2.75;1.17;;;31.70;99.90;;;;;;1796448;79;21130;-82
2022/06/05 10:46:41;;;;;;;3.92;1.40;;;;;;;;;;1796958;79;21355;-85
2022/06/05 10:49:18;;;;;;;3.15;1.55;;;31.60;99.90;;;;;;1795465;77;21150;-81
2022/06/05 10:51:51;;;;;;;3.95;2.30;;;31.50;99.90;;;;;;1764407;80;21127;-84
2022/06/05 10:54:30;;;;;;;3.85;2.08;;;31.50;99.90;;;;;;1822021;77;21121;-85
2022/06/05 10:57:03;;;;;;;5.50;2.58;;;31.60;99.90;;;;;;1826596;78;21186;-85
2022/06/05 10:59:37;;;;;;;4.70;1.98;;;31.50;99.90;;;;;;1796661;79;21153;-84
2022/06/05 11:02:15;;;;;;;4.17;2.52;;;31.80;99.90;;;;;;1820892;78;21159;-83
2022/06/05 11:04:55;;;;;;;7.00;2.25;;;31.50;99.90;;;;;;1793079;79;21234;-86
2022/06/05 11:07:34;;;;;;;5.35;2.42;;;31.60;99.90;;;;;;1784837;79;21196;-86
2022/06/05 11:10:10;;;;;;;4.42;2.40;;;31.70;99.90;;;;;;1784789;80;21571;-85
2022/06/05 11:15:18;;;;;;;5.40;2.50;;;31.80;99.90;;;;;;1784374;80;21233;-87
2022/06/05 11:17:50;;;;;;;8.38;3.20;;;31.80;99.90;;;;;;1780205;80;21115;-85
2022/06/05 11:20:24;;;;;;;5.78;2.98;;;31.60;99.90;;;;;;1779796;80;21225;-86
2022/06/05 11:22:55;;;;;;;5.42;3.40;;;31.40;99.90;;;;;;1779791;80;21143;-85
2022/06/05 11:25:41;;;;;;;7.92;3.52;;;31.30;99.90;;;;;;1780082;80;21167;-84
2022/06/05 11:28:15;;;;;;;7.47;3.72;;;31.70;99.90;;;;;;1779528;79;21180;-86
2022/06/05 11:30:47;;;;;;;4.50;2.95;;;31.30;99.90;;;;;;1778949;80;21183;-86
2022/06/05 11:33:23;;;;;;;5.75;3.50;;;31.30;99.90;;;;;;1778864;80;21233;-85
2022/06/05 11:35:53;;;;;;;5.83;2.40;;;31.30;99.90;;;;;;1779816;80;21632;-86
2022/06/05 11:38:29;;;;;;;4.15;2.05;;;31.40;99.90;;;;;;1780216;80;21195;-86
2022/06/05 11:41:02;;;;;;;4.40;2.30;;;31.20;99.90;;;;;;1779355;80;21115;-86
2022/06/05 11:43:39;;;;;;;6.10;2.10;;;31.60;99.90;;;;;;1778935;80;21151;-84
2022/06/05 11:46:12;;;;;;;5.05;2.22;;;31.50;99.90;;;;;;1775615;80;21183;-85
2022/06/05 11:48:52;;;;;;;6.80;2.65;;;31.50;99.90;;;;;;1780299;80;21216;-85
2022/06/05 11:51:27;;;;;;;4.65;2.75;;;31.50;99.90;;;;;;1781265;78;21276;-84
2022/06/05 11:54:01;;;;;;;5.37;2.35;;;31.10;99.90;;;;;;1756100;80;21241;-86
2022/06/05 11:56:35;;;;;;;7.62;2.47;;;31.50;99.90;;;;;;1776904;80;21170;-85
2022/06/05 11:59:13;;;;;;;6.35;2.42;;;31.20;99.90;;;;;;1779027;80;21301;-85
2022/06/05 12:01:46;;;;;;;6.33;3.30;;;31.10;99.90;;;;;;1778749;80;21159;-82
2022/06/05 12:04:20;;;;;;;7.10;3.77;;;31.30;99.90;;;;;;1771572;80;21702;-85
2022/06/05 12:06:54;;;;;;;7.97;4.20;;;31.10;99.90;;;;;;1765425;80;21099;-86
2022/06/05 12:09:39;;;;;;;6.60;4.12;;;31.10;99.90;;;;;;1783647;80;21146;-85
2022/06/05 12:12:17;;;;;;;10.23;4.28;;;31.40;99.90;;;;;;1782918;79;21154;-85
2022/06/05 12:14:51;;;;;;;8.03;4.12;;;31.00;99.90;;;;;;1782493;79;21131;-85
2022/06/05 12:17:25;;;;;;;8.75;4.20;;;31.00;99.90;;;;;;1786691;80;21170;-85
2022/06/05 12:20:02;;;;;;;8.28;4.22;;;31.10;99.90;;;;;;1777553;79;21161;-85
2022/06/05 12:22:35;;;;;;;9.60;4.22;;;31.40;99.90;;;;;;1806246;79;21685;-85
2022/06/05 12:25:13;;;;;;;7.60;4.80;;;31.10;99.90;;;;;;1796817;78;21153;-84
2022/06/05 12:27:44;;;;;;;7.15;4.80;;;31.00;99.90;;;;;;1783804;80;21206;-85
2022/06/05 12:30:23;;;;;;;10.72;5.00;;;31.10;99.90;;;;;;1815508;77;21166;-85
2022/06/05 12:32:52;;;;;;;8.95;5.65;;;31.00;99.90;;;;;;1815145;79;21186;-86
2022/06/05 12:35:27;;;;;;;8.70;5.33;;;31.00;99.90;;;;;;1820641;78;21150;-85
2022/06/05 12:38:00;;;;;;;12.53;6.37;;;31.00;99.90;;;;;;1812517;78;21698;-83
2022/06/05 12:40:34;;;;;;;9.98;6.00;;;31.10;99.90;;;;;;1813425;78;21218;-87
2022/06/05 12:43:06;;;;;;;10.82;6.40;;;31.30;99.90;;;;;;1804239;78;21119;-84
2022/06/05 12:45:40;;;;;;;10.38;5.70;;;31.30;99.90;;;;;;1824140;78;21576;-85
2022/06/05 12:48:11;;;;;;;14.10;6.03;;;31.30;99.90;;;;;;1809580;78;21149;-86
2022/06/05 12:50:49;;;;;;;11.53;5.87;;;30.90;99.90;;;;;;1816990;78;21084;-85
2022/06/05 12:53:28;;;;;;;9.43;5.45;;;31.20;99.90;;;;;;1822210;78;21118;-86
2022/06/05 12:56:02;;;;;;;9.83;5.17;;;31.00;99.90;;;;;;1828710;78;21234;-86
2022/06/05 12:58:35;;;;;;;8.58;5.00;;;30.80;99.90;;;;;;1820375;78;21550;-87
2022/06/05 13:01:09;;;;;;;7.55;4.10;;;31.10;99.90;;;;;;1819331;78;21239;-87
2022/06/05 13:03:45;;;;;;;7.20;3.75;;;30.90;99.90;;;;;;1802274;78;21158;-85
2022/06/05 13:06:15;;;;;;;6.37;3.27;;;30.80;99.90;;;;;;1806784;79;21183;-86
2022/06/05 13:08:49;;;;;;;5.83;3.00;;;30.70;99.90;;;;;;1803291;79;21148;-85
2022/06/05 13:11:29;;;;;;;5.00;3.15;;;30.80;99.90;;;;;;1804612;79;21296;-85
2022/06/05 13:14:01;;;;;;;7.33;3.25;;;30.60;99.90;;;;;;1805577;78;21264;-87
2022/06/05 13:16:36;;;;;;;6.85;3.27;;;30.50;99.90;;;;;;1784670;79;21672;-84
2022/06/05 13:19:13;;;;;;;9.63;3.83;;;30.60;99.90;;;;;;1762205;80;21281;-85
2022/06/05 13:21:48;;;;;;;5.90;2.95;;;30.60;99.90;;;;;;1749857;82;21171;-86
2022/06/05 13:24:23;;;;;;;9.33;2.90;;;30.30;99.90;;;;;;1792401;79;21213;-85
2022/06/05 13:27:00;;;;;;;6.25;3.42;;;30.20;99.90;;;;;;1779016;80;21558;-84
2022/06/05 13:29:36;;;;;;;11.40;3.25;;;30.30;99.90;;;;;;1762756;80;21294;-85
2022/06/05 13:32:11;;;;;;;7.75;3.02;;;30.30;99.90;;;;;;1775784;80;21158;-86
2022/06/05 13:34:51;;;;;;;6.95;2.90;;;30.40;99.90;;;;;;1822535;77;21930;-86
2022/06/05 13:37:28;;;;;;;7.35;3.42;;;30.30;99.90;;;;;;1852595;77;21166;-86
2022/06/05 13:40:03;;;;;;;6.67;3.10;;;30.30;99.90;;;;;;1841312;77;21218;-87
2022/06/05 13:42:37;;;;;;;4.95;3.02;;;30.30;99.90;;;;;;1845250;77;21249;-85